sensor_id;sensor_type;location;lat;lon;timestamp;temperature;humidity
41694;DHT22;27377;50.666;9.150;2023-11-21T00:00:16;8.20;99.90
41694;DHT22;27377;50.666;9.150;2023-11-21T02:45:22;8.10;99.90
41694;DHT22;27377;50.666;9.150;2023-11-21T02:49:03;8.20;99.90
41694;DHT22;27377;50.666;9.150;2023-11-21T02:52:07;8.10;99.90
41694;DHT22;27377;50.666;9.150;2023-11-21T02:55:02;8.10;99.90
41694;DHT22;27377;50.666;9.150;2023-11-21T03:16:54;8.10;99.90
41694;DHT22;27377;50.666;9.150;2023-11-21T03:20:48;8.00;99.90
41694;DHT22;27377;50.666;9.150;2023-11-21T03:23:44;8.10;99.90
41694;DHT22;27377;50.666;9.150;2023-11-21T03:26:36;8.00;99.90
41694;DHT22;27377;50.666;9.150;2023-11-21T03:52:46;8.10;99.90
41694;DHT22;27377;50.666;9.150;2023-11-21T03:56:10;8.10;99.90
41694;DHT22;27377;50.666;9.150;2023-11-21T04:44:24;8.20;99.90
41694;DHT22;27377;50.666;9.150;2023-11-21T05:00:36;8.10;99.90
41694;DHT22;27377;50.666;9.150;2023-11-21T05:03:14;8.10;99.90
41694;DHT22;27377;50.666;9.150;2023-11-21T05:05:48;8.10;99.90
41694;DHT22;27377;50.666;9.150;2023-11-21T05:08:16;8.10;99.90
41694;DHT22;27377;50.666;9.150;2023-11-21T05:10:49;8.00;99.90
41694;DHT22;27377;50.666;9.150;2023-11-21T05:13:17;8.00;99.90
41694;DHT22;27377;50.666;9.150;2023-11-21T05:15:48;8.10;99.90
41694;DHT22;27377;50.666;9.150;2023-11-21T05:31:38;8.00;99.90
41694;DHT22;27377;50.666;9.150;2023-11-21T05:38:24;8.00;99.90
41694;DHT22;27377;50.666;9.150;2023-11-21T05:44:41;8.00;99.90
41694;DHT22;27377;50.666;9.150;2023-11-21T05:47:16;8.00;99.90
41694;DHT22;27377;50.666;9.150;2023-11-21T05:50:48;8.00;99.90
41694;DHT22;27377;50.666;9.150;2023-11-21T05:53:39;8.00;99.90
41694;DHT22;27377;50.666;9.150;2023-11-21T06:07:59;8.00;99.90
41694;DHT22;27377;50.666;9.150;2023-11-21T06:16:54;7.90;99.90
41694;DHT22;27377;50.666;9.150;2023-11-21T06:19:36;8.00;99.90
41694;DHT22;27377;50.666;9.150;2023-11-21T06:27:14;7.90;99.90
41694;DHT22;27377;50.666;9.150;2023-11-21T06:29:41;8.00;99.90
41694;DHT22;27377;50.666;9.150;2023-11-21T06:32:21;8.00;99.90
41694;DHT22;27377;50.666;9.150;2023-11-21T06:34:48;7.90;99.90
41694;DHT22;27377;50.666;9.150;2023-11-21T06:37:16;7.90;99.90
41694;DHT22;27377;50.666;9.150;2023-11-21T06:39:42;7.90;99.90
41694;DHT22;27377;50.666;9.150;2023-11-21T06:42:08;7.90;99.90
41694;DHT22;27377;50.666;9.150;2023-11-21T06:44:34;7.90;99.90
41694;DHT22;27377;50.666;9.150;2023-11-21T06:47:04;7.90;99.90
41694;DHT22;27377;50.666;9.150;2023-11-21T06:52:06;7.90;99.90
41694;DHT22;27377;50.666;9.150;2023-11-21T06:54:32;7.90;99.90
41694;DHT22;27377;50.666;9.150;2023-11-21T06:57:04;7.90;99.90
41694;DHT22;27377;50.666;9.150;2023-11-21T06:59:47;7.90;99.90
41694;DHT22;27377;50.666;9.150;2023-11-21T07:02:13;7.90;99.90
41694;DHT22;27377;50.666;9.150;2023-11-21T07:05:01;7.90;99.90
41694;DHT22;27377;50.666;9.150;2023-11-21T07:11:14;7.90;99.90
41694;DHT22;27377;50.666;9.150;2023-11-21T07:17:13;7.90;99.90
41694;DHT22;27377;50.666;9.150;2023-11-21T07:25:47;7.90;99.90
41694;DHT22;27377;50.666;9.150;2023-11-21T07:28:14;7.90;99.90
41694;DHT22;27377;50.666;9.150;2023-11-21T07:30:42;7.90;99.90
41694;DHT22;27377;50.666;9.150;2023-11-21T07:33:14;7.90;99.90
41694;DHT22;27377;50.666;9.150;2023-11-21T07:36:17;7.90;99.90
41694;DHT22;27377;50.666;9.150;2023-11-21T08:00:21;7.60;99.90
41694;DHT22;27377;50.666;9.150;2023-11-21T08:02:47;7.60;99.90
41694;DHT22;27377;50.666;9.150;2023-11-21T08:05:14;7.60;99.90
41694;DHT22;27377;50.666;9.150;2023-11-21T08:07:41;7.60;99.90
41694;DHT22;27377;50.666;9.150;2023-11-21T08:10:07;7.60;99.90
41694;DHT22;27377;50.666;9.150;2023-11-21T08:12:35;7.60;99.90
41694;DHT22;27377;50.666;9.150;2023-11-21T08:15:02;7.60;99.90
41694;DHT22;27377;50.666;9.150;2023-11-21T08:17:42;7.60;99.90
41694;DHT22;27377;50.666;9.150;2023-11-21T08:20:41;7.60;99.90
41694;DHT22;27377;50.666;9.150;2023-11-21T08:43:42;7.50;99.90
41694;DHT22;27377;50.666;9.150;2023-11-21T08:46:08;7.50;99.90
41694;DHT22;27377;50.666;9.150;2023-11-21T08:48:37;7.60;99.90
41694;DHT22;27377;50.666;9.150;2023-11-21T08:51:03;7.60;99.90
41694;DHT22;27377;50.666;9.150;2023-11-21T08:53:30;7.60;99.90
41694;DHT22;27377;50.666;9.150;2023-11-21T09:04:19;7.50;99.90
41694;DHT22;27377;50.666;9.150;2023-11-21T09:07:26;7.60;99.90
41694;DHT22;27377;50.666;9.150;2023-11-21T09:10:22;7.50;99.90
41694;DHT22;27377;50.666;9.150;2023-11-21T10:01:31;7.80;99.90
41694;DHT22;27377;50.666;9.150;2023-11-21T10:03:58;7.80;99.90
41694;DHT22;27377;50.666;9.150;2023-11-21T10:06:26;7.80;99.90
41694;DHT22;27377;50.666;9.150;2023-11-21T10:08:53;7.80;99.90
41694;DHT22;27377;50.666;9.150;2023-11-21T10:11:24;7.80;99.90
41694;DHT22;27377;50.666;9.150;2023-11-21T10:13:55;7.90;99.90
41694;DHT22;27377;50.666;9.150;2023-11-21T10:16:25;7.90;99.90
41694;DHT22;27377;50.666;9.150;2023-11-21T10:18:52;7.90;99.90
41694;DHT22;27377;50.666;9.150;2023-11-21T10:21:22;8.00;99.90
41694;DHT22;27377;50.666;9.150;2023-11-21T10:23:47;8.00;99.90
41694;DHT22;27377;50.666;9.150;2023-11-21T10:26:13;8.00;99.90
41694;DHT22;27377;50.666;9.150;2023-11-21T10:28:59;8.00;99.90
41694;DHT22;27377;50.666;9.150;2023-11-21T10:31:31;8.10;99.90
41694;DHT22;27377;50.666;9.150;2023-11-21T10:34:17;8.10;99.90
41694;DHT22;27377;50.666;9.150;2023-11-21T10:36:44;8.10;99.90
41694;DHT22;27377;50.666;9.150;2023-11-21T10:39:18;8.10;99.90
41694;DHT22;27377;50.666;9.150;2023-11-21T10:41:49;8.20;99.90
41694;DHT22;27377;50.666;9.150;2023-11-21T10:44:15;8.10;99.90
41694;DHT22;27377;50.666;9.150;2023-11-21T10:46:53;8.10;99.90
41694;DHT22;27377;50.666;9.150;2023-11-21T10:49:22;8.10;99.90
41694;DHT22;27377;50.666;9.150;2023-11-21T10:51:50;8.10;99.90
41694;DHT22;27377;50.666;9.150;2023-11-21T10:54:22;8.10;99.90
41694;DHT22;27377;50.666;9.150;2023-11-21T10:56:49;8.10;99.90
41694;DHT22;27377;50.666;9.150;2023-11-21T10:59:17;8.10;99.90
41694;DHT22;27377;50.666;9.150;2023-11-21T11:01:45;8.10;99.90
41694;DHT22;27377;50.666;9.150;2023-11-21T11:04:15;8.10;99.90
41694;DHT22;27377;50.666;9.150;2023-11-21T11:06:54;8.10;99.90
41694;DHT22;27377;50.666;9.150;2023-11-21T11:09:20;8.20;99.90
41694;DHT22;27377;50.666;9.150;2023-11-21T11:11:46;8.20;99.90
41694;DHT22;27377;50.666;9.150;2023-11-21T11:14:13;8.30;99.90
41694;DHT22;27377;50.666;9.150;2023-11-21T11:16:40;8.30;99.90
41694;DHT22;27377;50.666;9.150;2023-11-21T11:19:07;8.30;99.90
41694;DHT22;27377;50.666;9.150;2023-11-21T11:33:28;8.30;99.90
41694;DHT22;27377;50.666;9.150;2023-11-21T11:36:28;8.30;99.90
41694;DHT22;27377;50.666;9.150;2023-11-21T11:38:55;8.30;99.90
41694;DHT22;27377;50.666;9.150;2023-11-21T11:41:31;8.30;99.90
41694;DHT22;27377;50.666;9.150;2023-11-21T11:44:00;8.30;99.90
41694;DHT22;27377;50.666;9.150;2023-11-21T11:46:43;8.20;99.90
41694;DHT22;27377;50.666;9.150;2023-11-21T11:49:29;8.30;99.90
41694;DHT22;27377;50.666;9.150;2023-11-21T11:55:05;8.20;99.90
41694;DHT22;27377;50.666;9.150;2023-11-21T11:57:32;8.30;99.90
41694;DHT22;27377;50.666;9.150;2023-11-21T12:02:54;8.30;99.90
41694;DHT22;27377;50.666;9.150;2023-11-21T12:05:29;8.30;99.90
41694;DHT22;27377;50.666;9.150;2023-11-21T12:08:20;8.30;99.90
41694;DHT22;27377;50.666;9.150;2023-11-21T12:10:48;8.30;99.90
41694;DHT22;27377;50.666;9.150;2023-11-21T12:13:21;8.40;99.90
41694;DHT22;27377;50.666;9.150;2023-11-21T12:15:49;8.40;99.90
41694;DHT22;27377;50.666;9.150;2023-11-21T12:18:16;8.40;99.90
41694;DHT22;27377;50.666;9.150;2023-11-21T12:20:42;8.40;99.90
41694;DHT22;27377;50.666;9.150;2023-11-21T12:23:12;8.40;99.90
41694;DHT22;27377;50.666;9.150;2023-11-21T12:25:44;8.40;99.90
41694;DHT22;27377;50.666;9.150;2023-11-21T12:28:10;8.40;99.90
41694;DHT22;27377;50.666;9.150;2023-11-21T12:30:39;8.40;99.90
41694;DHT22;27377;50.666;9.150;2023-11-21T12:33:05;8.40;99.90
41694;DHT22;27377;50.666;9.150;2023-11-21T12:35:40;8.40;99.90
41694;DHT22;27377;50.666;9.150;2023-11-21T12:38:07;8.40;99.90
41694;DHT22;27377;50.666;9.150;2023-11-21T12:40:36;8.40;99.90
41694;DHT22;27377;50.666;9.150;2023-11-21T12:43:07;8.40;99.90
41694;DHT22;27377;50.666;9.150;2023-11-21T12:45:36;8.40;99.90
41694;DHT22;27377;50.666;9.150;2023-11-21T12:48:05;8.50;99.90
41694;DHT22;27377;50.666;9.150;2023-11-21T12:50:39;8.50;99.90
41694;DHT22;27377;50.666;9.150;2023-11-21T12:53:14;8.40;99.90
41694;DHT22;27377;50.666;9.150;2023-11-21T12:55:45;8.40;99.90
41694;DHT22;27377;50.666;9.150;2023-11-21T12:58:20;8.40;99.90
41694;DHT22;27377;50.666;9.150;2023-11-21T13:03:26;8.40;99.90
41694;DHT22;27377;50.666;9.150;2023-11-21T13:05:53;8.40;99.90
41694;DHT22;27377;50.666;9.150;2023-11-21T13:08:25;8.50;99.90
41694;DHT22;27377;50.666;9.150;2023-11-21T13:11:01;8.50;99.90
41694;DHT22;27377;50.666;9.150;2023-11-21T13:13:29;8.50;99.90
41694;DHT22;27377;50.666;9.150;2023-11-21T13:16:01;8.50;99.90
41694;DHT22;27377;50.666;9.150;2023-11-21T13:19:09;8.50;99.90
41694;DHT22;27377;50.666;9.150;2023-11-21T13:36:50;8.50;99.90
41694;DHT22;27377;50.666;9.150;2023-11-21T13:39:23;8.50;99.90
41694;DHT22;27377;50.666;9.150;2023-11-21T13:41:49;8.50;99.90
41694;DHT22;27377;50.666;9.150;2023-11-21T13:44:20;8.50;99.90
41694;DHT22;27377;50.666;9.150;2023-11-21T13:47:03;8.50;99.90
41694;DHT22;27377;50.666;9.150;2023-11-21T13:49:31;8.60;99.90
41694;DHT22;27377;50.666;9.150;2023-11-21T13:52:01;8.50;99.90
41694;DHT22;27377;50.666;9.150;2023-11-21T13:54:30;8.50;99.90
41694;DHT22;27377;50.666;9.150;2023-11-21T13:56:56;8.50;99.90
41694;DHT22;27377;50.666;9.150;2023-11-21T13:59:22;8.50;99.90
41694;DHT22;27377;50.666;9.150;2023-11-21T14:01:55;8.50;99.90
41694;DHT22;27377;50.666;9.150;2023-11-21T14:07:12;8.40;99.90
41694;DHT22;27377;50.666;9.150;2023-11-21T14:10:03;8.40;99.90
41694;DHT22;27377;50.666;9.150;2023-11-21T14:12:33;8.40;99.90
41694;DHT22;27377;50.666;9.150;2023-11-21T14:15:05;8.40;99.90
41694;DHT22;27377;50.666;9.150;2023-11-21T14:17:36;8.40;99.90
41694;DHT22;27377;50.666;9.150;2023-11-21T14:20:34;8.40;99.90
41694;DHT22;27377;50.666;9.150;2023-11-21T15:06:24;8.40;99.90
41694;DHT22;27377;50.666;9.150;2023-11-21T15:08:57;8.50;99.90
41694;DHT22;27377;50.666;9.150;2023-11-21T15:11:43;8.50;99.90
41694;DHT22;27377;50.666;9.150;2023-11-21T15:14:12;8.50;99.90
41694;DHT22;27377;50.666;9.150;2023-11-21T15:16:41;8.40;99.90
41694;DHT22;27377;50.666;9.150;2023-11-21T15:19:14;8.50;99.90
41694;DHT22;27377;50.666;9.150;2023-11-21T15:22:38;8.50;99.90
41694;DHT22;27377;50.666;9.150;2023-11-21T15:40:44;8.40;99.90
41694;DHT22;27377;50.666;9.150;2023-11-21T15:43:13;8.40;99.90
41694;DHT22;27377;50.666;9.150;2023-11-21T15:45:40;8.40;99.90
41694;DHT22;27377;50.666;9.150;2023-11-21T15:48:11;8.50;99.90
41694;DHT22;27377;50.666;9.150;2023-11-21T15:50:37;8.50;99.90
41694;DHT22;27377;50.666;9.150;2023-11-21T15:53:04;8.50;99.90
41694;DHT22;27377;50.666;9.150;2023-11-21T15:55:30;8.50;99.90
41694;DHT22;27377;50.666;9.150;2023-11-21T15:57:58;8.40;99.90
41694;DHT22;27377;50.666;9.150;2023-11-21T16:00:25;8.50;99.90
41694;DHT22;27377;50.666;9.150;2023-11-21T16:02:51;8.50;99.90
41694;DHT22;27377;50.666;9.150;2023-11-21T16:05:22;8.40;99.90
41694;DHT22;27377;50.666;9.150;2023-11-21T16:07:54;8.40;99.90
41694;DHT22;27377;50.666;9.150;2023-11-21T16:10:22;8.40;99.90
41694;DHT22;27377;50.666;9.150;2023-11-21T16:12:50;8.40;99.90
41694;DHT22;27377;50.666;9.150;2023-11-21T16:15:22;8.40;99.90
41694;DHT22;27377;50.666;9.150;2023-11-21T16:17:48;8.40;99.90
41694;DHT22;27377;50.666;9.150;2023-11-21T16:20:15;8.40;99.90
41694;DHT22;27377;50.666;9.150;2023-11-21T16:22:45;8.40;99.90
41694;DHT22;27377;50.666;9.150;2023-11-21T16:25:13;8.40;99.90
41694;DHT22;27377;50.666;9.150;2023-11-21T16:27:46;8.30;99.90
41694;DHT22;27377;50.666;9.150;2023-11-21T16:30:30;8.30;99.90
41694;DHT22;27377;50.666;9.150;2023-11-21T16:33:15;8.20;99.90
41694;DHT22;27377;50.666;9.150;2023-11-21T16:35:43;8.20;99.90
41694;DHT22;27377;50.666;9.150;2023-11-21T16:38:13;8.10;99.90
41694;DHT22;27377;50.666;9.150;2023-11-21T16:40:39;8.10;99.90
41694;DHT22;27377;50.666;9.150;2023-11-21T16:43:09;8.10;99.90
41694;DHT22;27377;50.666;9.150;2023-11-21T16:45:42;8.00;99.90
41694;DHT22;27377;50.666;9.150;2023-11-21T16:48:18;8.00;99.90
41694;DHT22;27377;50.666;9.150;2023-11-21T16:50:44;8.00;99.90
41694;DHT22;27377;50.666;9.150;2023-11-21T16:53:10;8.00;99.90
41694;DHT22;27377;50.666;9.150;2023-11-21T16:55:36;7.90;99.90
41694;DHT22;27377;50.666;9.150;2023-11-21T16:58:02;7.90;99.90
41694;DHT22;27377;50.666;9.150;2023-11-21T17:00:27;7.90;99.90
41694;DHT22;27377;50.666;9.150;2023-11-21T17:02:53;7.80;99.90
41694;DHT22;27377;50.666;9.150;2023-11-21T17:05:19;7.80;99.90
41694;DHT22;27377;50.666;9.150;2023-11-21T17:07:45;7.80;99.90
41694;DHT22;27377;50.666;9.150;2023-11-21T17:10:13;7.70;99.90
41694;DHT22;27377;50.666;9.150;2023-11-21T17:12:39;7.70;99.90
41694;DHT22;27377;50.666;9.150;2023-11-21T17:15:05;7.70;99.90
41694;DHT22;27377;50.666;9.150;2023-11-21T17:17:33;7.60;99.90
41694;DHT22;27377;50.666;9.150;2023-11-21T17:19:59;7.60;99.90
41694;DHT22;27377;50.666;9.150;2023-11-21T17:22:26;7.50;99.90
41694;DHT22;27377;50.666;9.150;2023-11-21T17:24:52;7.50;99.90
41694;DHT22;27377;50.666;9.150;2023-11-21T17:27:18;7.50;99.90
41694;DHT22;27377;50.666;9.150;2023-11-21T17:29:43;7.50;99.90
41694;DHT22;27377;50.666;9.150;2023-11-21T17:32:10;7.40;99.90
41694;DHT22;27377;50.666;9.150;2023-11-21T17:34:35;7.40;99.90
41694;DHT22;27377;50.666;9.150;2023-11-21T17:37:01;7.40;99.90
41694;DHT22;27377;50.666;9.150;2023-11-21T17:39:28;7.30;99.90
41694;DHT22;27377;50.666;9.150;2023-11-21T17:41:53;7.30;99.90
41694;DHT22;27377;50.666;9.150;2023-11-21T17:44:19;7.30;99.90
41694;DHT22;27377;50.666;9.150;2023-11-21T17:46:45;7.20;99.90
41694;DHT22;27377;50.666;9.150;2023-11-21T17:49:11;7.20;99.90
41694;DHT22;27377;50.666;9.150;2023-11-21T17:51:39;7.20;99.90
41694;DHT22;27377;50.666;9.150;2023-11-21T17:54:05;7.20;99.90
41694;DHT22;27377;50.666;9.150;2023-11-21T17:56:31;7.20;99.90
41694;DHT22;27377;50.666;9.150;2023-11-21T17:58:57;7.20;99.90
41694;DHT22;27377;50.666;9.150;2023-11-21T18:01:23;7.20;99.90
41694;DHT22;27377;50.666;9.150;2023-11-21T18:03:49;7.20;99.90
41694;DHT22;27377;50.666;9.150;2023-11-21T18:06:15;7.20;99.90
41694;DHT22;27377;50.666;9.150;2023-11-21T18:08:41;7.20;99.90
41694;DHT22;27377;50.666;9.150;2023-11-21T18:11:08;7.20;99.90
41694;DHT22;27377;50.666;9.150;2023-11-21T18:13:33;7.20;99.90
41694;DHT22;27377;50.666;9.150;2023-11-21T18:15:59;7.20;99.90
41694;DHT22;27377;50.666;9.150;2023-11-21T18:18:25;7.10;99.90
41694;DHT22;27377;50.666;9.150;2023-11-21T18:20:51;7.10;99.90
41694;DHT22;27377;50.666;9.150;2023-11-21T18:23:17;7.10;99.90
41694;DHT22;27377;50.666;9.150;2023-11-21T18:25:43;7.10;99.90
41694;DHT22;27377;50.666;9.150;2023-11-21T18:28:09;7.10;99.90
41694;DHT22;27377;50.666;9.150;2023-11-21T18:30:35;7.00;99.90
41694;DHT22;27377;50.666;9.150;2023-11-21T18:33:00;7.00;99.90
41694;DHT22;27377;50.666;9.150;2023-11-21T18:35:26;7.00;99.90
41694;DHT22;27377;50.666;9.150;2023-11-21T18:37:53;7.00;99.90
41694;DHT22;27377;50.666;9.150;2023-11-21T18:40:19;7.00;99.90
41694;DHT22;27377;50.666;9.150;2023-11-21T18:42:46;6.90;99.90
41694;DHT22;27377;50.666;9.150;2023-11-21T18:45:12;6.90;99.90
41694;DHT22;27377;50.666;9.150;2023-11-21T18:47:38;6.90;99.90
41694;DHT22;27377;50.666;9.150;2023-11-21T18:50:05;6.90;99.90
41694;DHT22;27377;50.666;9.150;2023-11-21T18:52:31;6.90;99.90
41694;DHT22;27377;50.666;9.150;2023-11-21T18:54:59;6.90;99.90
41694;DHT22;27377;50.666;9.150;2023-11-21T18:57:27;6.90;99.90
41694;DHT22;27377;50.666;9.150;2023-11-21T18:59:52;6.90;99.90
41694;DHT22;27377;50.666;9.150;2023-11-21T19:02:18;6.90;99.90
41694;DHT22;27377;50.666;9.150;2023-11-21T19:04:44;6.80;99.90
41694;DHT22;27377;50.666;9.150;2023-11-21T19:07:10;6.80;99.90
41694;DHT22;27377;50.666;9.150;2023-11-21T19:09:36;6.90;99.90
41694;DHT22;27377;50.666;9.150;2023-11-21T19:12:02;6.90;99.90
41694;DHT22;27377;50.666;9.150;2023-11-21T19:14:28;6.90;99.90
41694;DHT22;27377;50.666;9.150;2023-11-21T19:16:54;6.80;99.90
41694;DHT22;27377;50.666;9.150;2023-11-21T19:19:20;6.80;99.90
41694;DHT22;27377;50.666;9.150;2023-11-21T19:21:45;6.80;99.90
41694;DHT22;27377;50.666;9.150;2023-11-21T19:24:11;6.80;99.90
41694;DHT22;27377;50.666;9.150;2023-11-21T19:26:40;6.80;99.90
41694;DHT22;27377;50.666;9.150;2023-11-21T19:29:05;6.90;99.90
41694;DHT22;27377;50.666;9.150;2023-11-21T19:31:33;6.80;99.90
41694;DHT22;27377;50.666;9.150;2023-11-21T19:33:59;6.80;99.90
41694;DHT22;27377;50.666;9.150;2023-11-21T19:36:25;6.80;99.90
41694;DHT22;27377;50.666;9.150;2023-11-21T19:38:50;6.80;99.90
41694;DHT22;27377;50.666;9.150;2023-11-21T19:41:18;6.80;99.90
41694;DHT22;27377;50.666;9.150;2023-11-21T19:43:45;6.80;99.90
41694;DHT22;27377;50.666;9.150;2023-11-21T19:46:12;6.80;99.90
41694;DHT22;27377;50.666;9.150;2023-11-21T19:48:38;6.80;99.90
41694;DHT22;27377;50.666;9.150;2023-11-21T19:51:08;6.80;99.90
41694;DHT22;27377;50.666;9.150;2023-11-21T19:53:33;6.80;99.90
41694;DHT22;27377;50.666;9.150;2023-11-21T19:56:03;6.70;99.90
41694;DHT22;27377;50.666;9.150;2023-11-21T19:58:28;6.70;99.90
41694;DHT22;27377;50.666;9.150;2023-11-21T20:00:55;6.80;99.90
41694;DHT22;27377;50.666;9.150;2023-11-21T20:03:20;6.70;99.90
41694;DHT22;27377;50.666;9.150;2023-11-21T20:05:46;6.70;99.90
41694;DHT22;27377;50.666;9.150;2023-11-21T20:08:14;6.70;99.90
41694;DHT22;27377;50.666;9.150;2023-11-21T20:13:16;6.60;99.90
41694;DHT22;27377;50.666;9.150;2023-11-21T20:15:43;6.60;99.90
41694;DHT22;27377;50.666;9.150;2023-11-21T20:18:12;6.60;99.90
41694;DHT22;27377;50.666;9.150;2023-11-21T20:20:38;6.60;99.90
41694;DHT22;27377;50.666;9.150;2023-11-21T20:23:04;6.60;99.90
41694;DHT22;27377;50.666;9.150;2023-11-21T20:25:31;6.60;99.90
41694;DHT22;27377;50.666;9.150;2023-11-21T20:27:57;6.60;99.90
41694;DHT22;27377;50.666;9.150;2023-11-21T20:30:27;6.50;99.90
41694;DHT22;27377;50.666;9.150;2023-11-21T20:33:04;6.50;99.90
41694;DHT22;27377;50.666;9.150;2023-11-21T20:35:37;6.50;99.90
41694;DHT22;27377;50.666;9.150;2023-11-21T20:38:05;6.50;99.90
41694;DHT22;27377;50.666;9.150;2023-11-21T20:40:32;6.40;99.90
41694;DHT22;27377;50.666;9.150;2023-11-21T20:42:57;6.40;99.90
41694;DHT22;27377;50.666;9.150;2023-11-21T20:45:33;6.30;99.90
41694;DHT22;27377;50.666;9.150;2023-11-21T20:48:05;6.40;99.90
41694;DHT22;27377;50.666;9.150;2023-11-21T20:50:33;6.30;99.90
41694;DHT22;27377;50.666;9.150;2023-11-21T20:53:03;6.30;99.90
41694;DHT22;27377;50.666;9.150;2023-11-21T20:58:12;6.20;99.90
